Newell, North Carolina
Current Conditions -  °F | °C
As of 12:35 AM on Wednesday 26 Nov 2014 (Local Time) from KJQF Reporting Station
Moderate Rain Moderate Rain  
Wind Chill: 42°   Ceiling: 1600
Heat Index: 46°   Visibility: 5mi
Dew Point: 45°   Wind: 8mph
Humidity: 93%   Direction: 20°NNE
Pressure: 30.04"   Gusts: NA
Location:  35.28°N, 80.74°W
Report Text: KJQF 260535Z AUTO 02007KT 5SM RA SCT010 OVC016 08/07 A3004 RMK AO2 P0007
Loading
Personal Weather Stations






























Interactive Weather Map New forecast layout! Learn more

10-Day Weather Forecast

Advertisements
Track Severe Weather on mobile